Weather at Ufa International Airport

Public forecast

Using degrees Celsius for public forecast. Weather courtesy of forecast.io.

Current aviation weather report (METAR) for Ufa International Airport

Retrieved 2021/04/19 06:30 UTC (25 minutes ago):

UWUU 190630Z 10006MPS 050V150 CAVOK 06/M12 Q1027 R14R/0///60 NOSIG

Aviation forecast (TAF) for Ufa International Airport

Retrieved 2021/04/19 06:21 UTC (34 minutes ago):

TAF UWUU 190450Z 1906/2006 08008G13MPS 9999 SCT040 TX09/1912Z TNM03/2003Z TEMPO 1906/1918 10011G17MPS TEMPO 1918/2006 10003G08MPS